sensor_id;sensor_type;location;lat;lon;timestamp;pressure;altitude;pressure_sealevel;temperature;humidity
72423;BME280;60413;55.658;37.498;2023-03-14T00:02:21;99667.56;;;-3.15;100.00
72423;BME280;60413;55.658;37.498;2023-03-14T00:04:49;99610.28;;;-3.48;100.00
72423;BME280;60413;55.658;37.498;2023-03-14T00:07:15;99611.63;;;-3.44;100.00
72423;BME280;60413;55.658;37.498;2023-03-14T00:09:54;99635.09;;;-3.18;100.00
72423;BME280;60413;55.658;37.498;2023-03-14T00:12:38;99611.66;;;-3.25;100.00
72423;BME280;60413;55.658;37.498;2023-03-14T00:15:11;99641.88;;;-2.98;100.00
72423;BME280;60413;55.658;37.498;2023-03-14T00:17:50;99607.44;;;-3.26;100.00
72423;BME280;60413;55.658;37.498;2023-03-14T00:20:24;99633.44;;;-2.90;100.00
72423;BME280;60413;55.658;37.498;2023-03-14T00:23:19;99582.06;;;-3.21;100.00
72423;BME280;60413;55.658;37.498;2023-03-14T00:25:51;99628.97;;;-2.98;100.00
72423;BME280;60413;55.658;37.498;2023-03-14T00:28:20;99551.69;;;-3.46;100.00
72423;BME280;60413;55.658;37.498;2023-03-14T00:37:24;99597.56;;;-3.30;100.00
72423;BME280;60413;55.658;37.498;2023-03-14T00:40:17;99589.94;;;-3.32;100.00
72423;BME280;60413;55.658;37.498;2023-03-14T00:42:49;99623.16;;;-3.09;100.00
72423;BME280;60413;55.658;37.498;2023-03-14T00:45:45;99567.44;;;-3.40;100.00
72423;BME280;60413;55.658;37.498;2023-03-14T00:51:49;99595.09;;;-3.32;100.00
72423;BME280;60413;55.658;37.498;2023-03-14T00:54:15;99581.13;;;-3.39;100.00
72423;BME280;60413;55.658;37.498;2023-03-14T00:56:44;99616.53;;;-3.22;100.00
72423;BME280;60413;55.658;37.498;2023-03-14T00:59:11;99665.66;;;-2.94;100.00
72423;BME280;60413;55.658;37.498;2023-03-14T01:01:40;99624.50;;;-2.95;100.00
72423;BME280;60413;55.658;37.498;2023-03-14T01:04:27;99577.19;;;-3.43;100.00
72423;BME280;60413;55.658;37.498;2023-03-14T01:07:12;99581.94;;;-3.48;100.00
72423;BME280;60413;55.658;37.498;2023-03-14T01:09:46;99584.78;;;-3.22;100.00
72423;BME280;60413;55.658;37.498;2023-03-14T01:12:18;99573.81;;;-3.54;100.00
72423;BME280;60413;55.658;37.498;2023-03-14T01:14:46;99603.25;;;-3.37;100.00
72423;BME280;60413;55.658;37.498;2023-03-14T01:17:20;99646.63;;;-3.12;100.00
72423;BME280;60413;55.658;37.498;2023-03-14T01:19:51;99646.22;;;-3.18;100.00
72423;BME280;60413;55.658;37.498;2023-03-14T01:22:18;99636.06;;;-3.19;100.00
72423;BME280;60413;55.658;37.498;2023-03-14T01:24:47;99581.81;;;-3.57;100.00
72423;BME280;60413;55.658;37.498;2023-03-14T01:27:15;99559.59;;;-3.67;100.00
72423;BME280;60413;55.658;37.498;2023-03-14T01:29:57;99553.59;;;-3.68;100.00
72423;BME280;60413;55.658;37.498;2023-03-14T01:32:34;99514.16;;;-3.78;100.00
72423;BME280;60413;55.658;37.498;2023-03-14T01:55:06;99504.63;;;-3.29;100.00
72423;BME280;60413;55.658;37.498;2023-03-14T02:01:54;99465.19;;;-3.49;100.00
72423;BME280;60413;55.658;37.498;2023-03-14T02:05:42;99460.81;;;-3.39;100.00
72423;BME280;60413;55.658;37.498;2023-03-14T02:18:09;99438.88;;;-3.53;100.00
72423;BME280;60413;55.658;37.498;2023-03-14T02:31:33;99409.81;;;-3.35;100.00
72423;BME280;60413;55.658;37.498;2023-03-14T02:43:53;99411.03;;;-3.02;100.00
72423;BME280;60413;55.658;37.498;2023-03-14T02:46:39;99409.91;;;-2.99;100.00
72423;BME280;60413;55.658;37.498;2023-03-14T02:49:14;99393.16;;;-3.13;100.00
72423;BME280;60413;55.658;37.498;2023-03-14T02:54:43;99369.16;;;-3.13;100.00
72423;BME280;60413;55.658;37.498;2023-03-14T02:57:13;99419.84;;;-2.76;100.00
72423;BME280;60413;55.658;37.498;2023-03-14T03:00:10;99328.19;;;-3.17;100.00
72423;BME280;60413;55.658;37.498;2023-03-14T03:02:50;99346.19;;;-3.07;100.00
72423;BME280;60413;55.658;37.498;2023-03-14T03:05:38;99344.78;;;-3.01;100.00
72423;BME280;60413;55.658;37.498;2023-03-14T03:08:15;99362.50;;;-2.88;100.00
72423;BME280;60413;55.658;37.498;2023-03-14T03:11:04;99422.50;;;-2.40;100.00
72423;BME280;60413;55.658;37.498;2023-03-14T03:13:47;99375.28;;;-2.51;100.00
72423;BME280;60413;55.658;37.498;2023-03-14T03:59:14;99281.28;;;-1.96;100.00
72423;BME280;60413;55.658;37.498;2023-03-14T04:01:44;99233.75;;;-2.11;100.00
72423;BME280;60413;55.658;37.498;2023-03-14T04:04:16;99316.38;;;-1.85;100.00
72423;BME280;60413;55.658;37.498;2023-03-14T04:06:42;99294.28;;;-1.79;100.00
72423;BME280;60413;55.658;37.498;2023-03-14T04:09:09;99297.94;;;-1.90;100.00
72423;BME280;60413;55.658;37.498;2023-03-14T04:11:44;99334.63;;;-1.52;100.00
72423;BME280;60413;55.658;37.498;2023-03-14T04:14:23;99255.63;;;-1.89;100.00
72423;BME280;60413;55.658;37.498;2023-03-14T04:17:20;99275.94;;;-1.68;100.00
72423;BME280;60413;55.658;37.498;2023-03-14T04:19:50;99264.13;;;-1.71;100.00
72423;BME280;60413;55.658;37.498;2023-03-14T04:22:20;99310.97;;;-1.31;100.00
72423;BME280;60413;55.658;37.498;2023-03-14T04:24:54;99238.47;;;-1.64;100.00
72423;BME280;60413;55.658;37.498;2023-03-14T04:27:23;99233.44;;;-1.65;100.00
72423;BME280;60413;55.658;37.498;2023-03-14T04:30:05;99313.28;;;-1.12;100.00
72423;BME280;60413;55.658;37.498;2023-03-14T04:36:37;99287.28;;;-1.02;100.00
72423;BME280;60413;55.658;37.498;2023-03-14T04:39:38;99268.69;;;-1.14;100.00
72423;BME280;60413;55.658;37.498;2023-03-14T04:42:29;99250.06;;;-1.09;100.00
72423;BME280;60413;55.658;37.498;2023-03-14T04:45:08;99190.41;;;-1.24;100.00
72423;BME280;60413;55.658;37.498;2023-03-14T04:48:40;99275.34;;;-0.86;100.00
72423;BME280;60413;55.658;37.498;2023-03-14T04:59:20;99260.00;;;-0.71;100.00
72423;BME280;60413;55.658;37.498;2023-03-14T05:02:51;99211.28;;;-0.93;100.00
72423;BME280;60413;55.658;37.498;2023-03-14T05:06:34;99205.31;;;-0.85;100.00
72423;BME280;60413;55.658;37.498;2023-03-14T05:09:48;99223.75;;;-0.55;100.00
72423;BME280;60413;55.658;37.498;2023-03-14T05:12:55;99174.91;;;-0.66;100.00
72423;BME280;60413;55.658;37.498;2023-03-14T05:16:20;99214.00;;;-0.36;100.00
72423;BME280;60413;55.658;37.498;2023-03-14T05:26:59;99134.41;;;-0.51;100.00
72423;BME280;60413;55.658;37.498;2023-03-14T05:54:22;99146.19;;;0.08;100.00
72423;BME280;60413;55.658;37.498;2023-03-14T06:07:40;99174.03;;;0.45;100.00
72423;BME280;60413;55.658;37.498;2023-03-14T06:10:36;99153.53;;;0.59;100.00
72423;BME280;60413;55.658;37.498;2023-03-14T06:20:56;99241.31;;;1.16;100.00
72423;BME280;60413;55.658;37.498;2023-03-14T06:24:01;99238.78;;;1.08;100.00
72423;BME280;60413;55.658;37.498;2023-03-14T06:33:30;99189.31;;;0.86;100.00
72423;BME280;60413;55.658;37.498;2023-03-14T06:35:57;99230.72;;;1.03;100.00
72423;BME280;60413;55.658;37.498;2023-03-14T06:38:44;99227.31;;;1.02;100.00
72423;BME280;60413;55.658;37.498;2023-03-14T06:41:15;99232.97;;;1.06;100.00
72423;BME280;60413;55.658;37.498;2023-03-14T06:47:05;99254.53;;;1.29;100.00
72423;BME280;60413;55.658;37.498;2023-03-14T06:49:32;99199.91;;;1.00;100.00
72423;BME280;60413;55.658;37.498;2023-03-14T06:52:02;99225.47;;;1.11;100.00
72423;BME280;60413;55.658;37.498;2023-03-14T06:54:30;99197.13;;;1.01;100.00
72423;BME280;60413;55.658;37.498;2023-03-14T06:57:00;99209.38;;;1.16;100.00
72423;BME280;60413;55.658;37.498;2023-03-14T06:59:51;99265.97;;;1.58;100.00
72423;BME280;60413;55.658;37.498;2023-03-14T07:02:19;99239.78;;;1.45;100.00
72423;BME280;60413;55.658;37.498;2023-03-14T07:04:49;99240.44;;;1.62;100.00
72423;BME280;60413;55.658;37.498;2023-03-14T07:07:18;99206.03;;;1.45;100.00
72423;BME280;60413;55.658;37.498;2023-03-14T07:09:45;99242.41;;;1.60;100.00
72423;BME280;60413;55.658;37.498;2023-03-14T07:12:15;99228.44;;;1.61;100.00
72423;BME280;60413;55.658;37.498;2023-03-14T07:14:42;99272.09;;;1.80;100.00
72423;BME280;60413;55.658;37.498;2023-03-14T07:17:12;99244.06;;;1.76;100.00
72423;BME280;60413;55.658;37.498;2023-03-14T07:22:49;99289.50;;;2.10;100.00
72423;BME280;60413;55.658;37.498;2023-03-14T07:26:07;99290.75;;;2.14;100.00
72423;BME280;60413;55.658;37.498;2023-03-14T07:28:59;99254.81;;;2.02;100.00
72423;BME280;60413;55.658;37.498;2023-03-14T07:37:46;99292.53;;;2.58;100.00
72423;BME280;60413;55.658;37.498;2023-03-14T07:43:24;99249.88;;;2.37;100.00
72423;BME280;60413;55.658;37.498;2023-03-14T07:46:07;99283.03;;;2.50;100.00
72423;BME280;60413;55.658;37.498;2023-03-14T07:48:55;99225.66;;;2.07;100.00
72423;BME280;60413;55.658;37.498;2023-03-14T08:04:00;99288.91;;;2.74;100.00
72423;BME280;60413;55.658;37.498;2023-03-14T08:06:55;99314.22;;;2.80;100.00
72423;BME280;60413;55.658;37.498;2023-03-14T08:10:06;99265.31;;;2.39;100.00
72423;BME280;60413;55.658;37.498;2023-03-14T08:13:08;99275.34;;;2.27;100.00
72423;BME280;60413;55.658;37.498;2023-03-14T08:18:55;99313.09;;;2.68;100.00
72423;BME280;60413;55.658;37.498;2023-03-14T08:21:36;99267.00;;;2.32;100.00
72423;BME280;60413;55.658;37.498;2023-03-14T08:24:09;99269.59;;;2.32;100.00
72423;BME280;60413;55.658;37.498;2023-03-14T08:26:48;99326.97;;;2.75;100.00
72423;BME280;60413;55.658;37.498;2023-03-14T08:29:21;99292.53;;;2.58;100.00
72423;BME280;60413;55.658;37.498;2023-03-14T08:32:01;99248.56;;;2.63;100.00
72423;BME280;60413;55.658;37.498;2023-03-14T08:34:34;99296.94;;;2.94;100.00
72423;BME280;60413;55.658;37.498;2023-03-14T08:37:07;99284.91;;;2.71;100.00
72423;BME280;60413;55.658;37.498;2023-03-14T08:39:38;99258.00;;;2.64;100.00
72423;BME280;60413;55.658;37.498;2023-03-14T08:42:07;99323.88;;;3.01;100.00
72423;BME280;60413;55.658;37.498;2023-03-14T08:44:58;99272.22;;;2.83;100.00
72423;BME280;60413;55.658;37.498;2023-03-14T08:47:25;99314.66;;;3.20;100.00
72423;BME280;60413;55.658;37.498;2023-03-14T08:50:01;99290.22;;;3.21;100.00
72423;BME280;60413;55.658;37.498;2023-03-14T08:52:33;99256.38;;;3.00;100.00
72423;BME280;60413;55.658;37.498;2023-03-14T08:58:54;99289.47;;;3.49;100.00
72423;BME280;60413;55.658;37.498;2023-03-14T09:05:13;99305.53;;;3.52;100.00
72423;BME280;60413;55.658;37.498;2023-03-14T09:15:08;99299.84;;;3.70;100.00
72423;BME280;60413;55.658;37.498;2023-03-14T09:17:36;99258.09;;;3.64;100.00
72423;BME280;60413;55.658;37.498;2023-03-14T09:23:12;99263.19;;;3.72;100.00
72423;BME280;60413;55.658;37.498;2023-03-14T09:25:38;99234.31;;;3.45;100.00
72423;BME280;60413;55.658;37.498;2023-03-14T09:28:12;99254.03;;;3.55;100.00
72423;BME280;60413;55.658;37.498;2023-03-14T09:30:39;99292.28;;;3.76;100.00
72423;BME280;60413;55.658;37.498;2023-03-14T09:33:06;99267.69;;;3.57;100.00
72423;BME280;60413;55.658;37.498;2023-03-14T09:35:33;99276.94;;;3.59;100.00
72423;BME280;60413;55.658;37.498;2023-03-14T09:38:02;99268.72;;;3.62;100.00
72423;BME280;60413;55.658;37.498;2023-03-14T09:40:37;99224.50;;;3.47;100.00
72423;BME280;60413;55.658;37.498;2023-03-14T09:43:15;99292.00;;;3.92;100.00
72423;BME280;60413;55.658;37.498;2023-03-14T09:45:47;99248.31;;;3.66;100.00
72423;BME280;60413;55.658;37.498;2023-03-14T09:48:29;99227.69;;;3.43;100.00
72423;BME280;60413;55.658;37.498;2023-03-14T09:51:14;99231.06;;;3.65;100.00
72423;BME280;60413;55.658;37.498;2023-03-14T09:53:53;99238.81;;;3.86;100.00
72423;BME280;60413;55.658;37.498;2023-03-14T09:56:26;99291.13;;;4.13;100.00
72423;BME280;60413;55.658;37.498;2023-03-14T09:58:56;99227.16;;;3.82;100.00
72423;BME280;60413;55.658;37.498;2023-03-14T10:01:31;99266.34;;;3.96;100.00
72423;BME280;60413;55.658;37.498;2023-03-14T10:04:09;99237.66;;;3.96;100.00
72423;BME280;60413;55.658;37.498;2023-03-14T10:06:38;99265.47;;;4.17;100.00
72423;BME280;60413;55.658;37.498;2023-03-14T10:09:04;99266.91;;;4.19;100.00
72423;BME280;60413;55.658;37.498;2023-03-14T10:11:34;99262.72;;;4.32;100.00
72423;BME280;60413;55.658;37.498;2023-03-14T10:14:10;99210.88;;;4.15;100.00
72423;BME280;60413;55.658;37.498;2023-03-14T10:16:46;99232.84;;;4.41;100.00
72423;BME280;60413;55.658;37.498;2023-03-14T10:19:19;99202.13;;;4.30;100.00
72423;BME280;60413;55.658;37.498;2023-03-14T10:21:52;99218.25;;;4.53;100.00
72423;BME280;60413;55.658;37.498;2023-03-14T10:24:26;99237.59;;;4.79;100.00
72423;BME280;60413;55.658;37.498;2023-03-14T10:27:02;99188.50;;;4.41;100.00
72423;BME280;60413;55.658;37.498;2023-03-14T10:29:54;99224.09;;;4.62;100.00
72423;BME280;60413;55.658;37.498;2023-03-14T10:32:36;99184.47;;;4.38;100.00
72423;BME280;60413;55.658;37.498;2023-03-14T10:35:18;99254.06;;;4.73;100.00
72423;BME280;60413;55.658;37.498;2023-03-14T10:38:18;99205.56;;;4.43;100.00
72423;BME280;60413;55.658;37.498;2023-03-14T10:40:50;99259.50;;;4.78;100.00
72423;BME280;60413;55.658;37.498;2023-03-14T10:43:43;99178.91;;;4.48;100.00
72423;BME280;60413;55.658;37.498;2023-03-14T10:46:17;99211.41;;;4.52;100.00
72423;BME280;60413;55.658;37.498;2023-03-14T10:49:36;99216.25;;;4.62;100.00
72423;BME280;60413;55.658;37.498;2023-03-14T10:54:30;99227.53;;;4.76;100.00
72423;BME280;60413;55.658;37.498;2023-03-14T10:57:06;99161.84;;;4.59;100.00
72423;BME280;60413;55.658;37.498;2023-03-14T10:59:36;99187.78;;;4.87;100.00
72423;BME280;60413;55.658;37.498;2023-03-14T11:02:44;99179.56;;;4.97;100.00
72423;BME280;60413;55.658;37.498;2023-03-14T11:05:41;99164.50;;;5.32;100.00
72423;BME280;60413;55.658;37.498;2023-03-14T11:08:29;99169.91;;;5.44;100.00
72423;BME280;60413;55.658;37.498;2023-03-14T11:11:22;99130.72;;;5.37;100.00
72423;BME280;60413;55.658;37.498;2023-03-14T11:16:43;99165.66;;;5.63;100.00
72423;BME280;60413;55.658;37.498;2023-03-14T11:22:14;99122.84;;;5.51;100.00
72423;BME280;60413;55.658;37.498;2023-03-14T11:33:38;99210.31;;;5.55;100.00
72423;BME280;60413;55.658;37.498;2023-03-14T11:36:08;99208.13;;;5.52;100.00
72423;BME280;60413;55.658;37.498;2023-03-14T11:38:51;99186.22;;;5.26;100.00
72423;BME280;60413;55.658;37.498;2023-03-14T11:41:39;99227.78;;;5.61;100.00
72423;BME280;60413;55.658;37.498;2023-03-14T11:44:36;99241.06;;;5.60;100.00
72423;BME280;60413;55.658;37.498;2023-03-14T11:47:18;99228.00;;;5.53;100.00
72423;BME280;60413;55.658;37.498;2023-03-14T11:49:48;99239.28;;;5.53;100.00
72423;BME280;60413;55.658;37.498;2023-03-14T11:52:28;99235.84;;;5.46;100.00
72423;BME280;60413;55.658;37.498;2023-03-14T11:55:20;99182.00;;;5.25;100.00
72423;BME280;60413;55.658;37.498;2023-03-14T11:57:56;99246.94;;;5.55;100.00
72423;BME280;60413;55.658;37.498;2023-03-14T12:00:47;99220.59;;;5.30;100.00
72423;BME280;60413;55.658;37.498;2023-03-14T12:03:25;99231.84;;;5.37;100.00
72423;BME280;60413;55.658;37.498;2023-03-14T12:14:37;99250.34;;;5.55;100.00
72423;BME280;60413;55.658;37.498;2023-03-14T12:17:40;99173.75;;;5.15;100.00
72423;BME280;60413;55.658;37.498;2023-03-14T12:20:16;99251.53;;;5.46;100.00
72423;BME280;60413;55.658;37.498;2023-03-14T12:22:55;99166.50;;;5.10;100.00
72423;BME280;60413;55.658;37.498;2023-03-14T12:25:25;99188.41;;;5.29;100.00
72423;BME280;60413;55.658;37.498;2023-03-14T12:30:38;99224.78;;;5.37;100.00
72423;BME280;60413;55.658;37.498;2023-03-14T12:35:44;99270.84;;;5.45;100.00
72423;BME280;60413;55.658;37.498;2023-03-14T12:38:23;99211.72;;;5.11;100.00
72423;BME280;60413;55.658;37.498;2023-03-14T12:43:54;99175.97;;;5.11;100.00
72423;BME280;60413;55.658;37.498;2023-03-14T12:46:30;99209.50;;;5.08;100.00
72423;BME280;60413;55.658;37.498;2023-03-14T12:49:08;99274.44;;;5.37;100.00
72423;BME280;60413;55.658;37.498;2023-03-14T12:51:41;99254.94;;;5.13;100.00
72423;BME280;60413;55.658;37.498;2023-03-14T13:00:20;99274.44;;;5.17;100.00
72423;BME280;60413;55.658;37.498;2023-03-14T13:03:30;99226.38;;;4.85;100.00
72423;BME280;60413;55.658;37.498;2023-03-14T13:06:09;99230.81;;;5.05;100.00
72423;BME280;60413;55.658;37.498;2023-03-14T13:11:23;99205.88;;;4.95;100.00
72423;BME280;60413;55.658;37.498;2023-03-14T13:14:11;99209.94;;;5.05;100.00
72423;BME280;60413;55.658;37.498;2023-03-14T13:16:37;99256.75;;;5.33;100.00
72423;BME280;60413;55.658;37.498;2023-03-14T13:19:19;99251.13;;;5.29;100.00
72423;BME280;60413;55.658;37.498;2023-03-14T13:21:47;99161.28;;;4.83;100.00
72423;BME280;60413;55.658;37.498;2023-03-14T13:24:27;99184.81;;;5.04;100.00
72423;BME280;60413;55.658;37.498;2023-03-14T13:27:00;99232.84;;;5.29;100.00
72423;BME280;60413;55.658;37.498;2023-03-14T13:29:57;99173.97;;;5.07;100.00
72423;BME280;60413;55.658;37.498;2023-03-14T13:32:28;99208.53;;;5.22;100.00
72423;BME280;60413;55.658;37.498;2023-03-14T13:34:58;99197.47;;;5.13;100.00
72423;BME280;60413;55.658;37.498;2023-03-14T13:37:44;99164.28;;;4.87;100.00
72423;BME280;60413;55.658;37.498;2023-03-14T13:40:28;99172.13;;;4.87;100.00
72423;BME280;60413;55.658;37.498;2023-03-14T13:43:24;99202.50;;;5.28;100.00
72423;BME280;60413;55.658;37.498;2023-03-14T13:48:34;99192.63;;;5.04;100.00
72423;BME280;60413;55.658;37.498;2023-03-14T13:51:12;99175.97;;;4.85;100.00
72423;BME280;60413;55.658;37.498;2023-03-14T13:53:50;99152.22;;;4.66;100.00
72423;BME280;60413;55.658;37.498;2023-03-14T13:56:21;99179.94;;;4.74;100.00
72423;BME280;60413;55.658;37.498;2023-03-14T13:59:02;99207.50;;;4.96;100.00
72423;BME280;60413;55.658;37.498;2023-03-14T14:01:29;99212.34;;;4.99;100.00
72423;BME280;60413;55.658;37.498;2023-03-14T14:04:07;99168.69;;;4.67;100.00
72423;BME280;60413;55.658;37.498;2023-03-14T14:06:49;99231.44;;;5.07;100.00
72423;BME280;60413;55.658;37.498;2023-03-14T14:09:30;99199.88;;;5.01;100.00
72423;BME280;60413;55.658;37.498;2023-03-14T14:12:14;99227.59;;;5.03;100.00
72423;BME280;60413;55.658;37.498;2023-03-14T14:15:13;99250.31;;;5.02;100.00
72423;BME280;60413;55.658;37.498;2023-03-14T14:17:44;99213.50;;;4.83;100.00
72423;BME280;60413;55.658;37.498;2023-03-14T14:20:47;99160.44;;;4.56;100.00
72423;BME280;60413;55.658;37.498;2023-03-14T14:23:22;99171.66;;;4.50;100.00
72423;BME280;60413;55.658;37.498;2023-03-14T14:29:03;99189.19;;;4.76;100.00
72423;BME280;60413;55.658;37.498;2023-03-14T14:31:30;99170.06;;;4.56;100.00
72423;BME280;60413;55.658;37.498;2023-03-14T14:34:18;99159.66;;;4.89;100.00
72423;BME280;60413;55.658;37.498;2023-03-14T14:36:55;99190.59;;;4.72;100.00
72423;BME280;60413;55.658;37.498;2023-03-14T14:39:39;99183.78;;;4.78;100.00
72423;BME280;60413;55.658;37.498;2023-03-14T14:42:35;99174.88;;;4.59;100.00
72423;BME280;60413;55.658;37.498;2023-03-14T14:45:10;99204.00;;;4.62;100.00
72423;BME280;60413;55.658;37.498;2023-03-14T14:53:42;99163.19;;;4.35;100.00
72423;BME280;60413;55.658;37.498;2023-03-14T14:56:26;99211.81;;;4.56;100.00
72423;BME280;60413;55.658;37.498;2023-03-14T14:59:01;99174.03;;;4.32;100.00
72423;BME280;60413;55.658;37.498;2023-03-14T15:01:37;99159.13;;;4.19;100.00
72423;BME280;60413;55.658;37.498;2023-03-14T15:04:13;99152.13;;;4.19;100.00
72423;BME280;60413;55.658;37.498;2023-03-14T15:06:47;99138.66;;;4.22;100.00
72423;BME280;60413;55.658;37.498;2023-03-14T15:09:25;99149.13;;;4.29;100.00
72423;BME280;60413;55.658;37.498;2023-03-14T15:12:04;99212.84;;;4.61;100.00
72423;BME280;60413;55.658;37.498;2023-03-14T15:14:36;99143.09;;;4.22;100.00
72423;BME280;60413;55.658;37.498;2023-03-14T15:17:10;99167.00;;;4.32;100.00
72423;BME280;60413;55.658;37.498;2023-03-14T15:19:38;99198.16;;;4.47;100.00
72423;BME280;60413;55.658;37.498;2023-03-14T15:22:14;99190.09;;;4.42;100.00
72423;BME280;60413;55.658;37.498;2023-03-14T15:24:41;99167.16;;;4.24;100.00
72423;BME280;60413;55.658;37.498;2023-03-14T15:27:13;99198.09;;;4.27;100.00
72423;BME280;60413;55.658;37.498;2023-03-14T15:30:08;99165.75;;;4.15;100.00
72423;BME280;60413;55.658;37.498;2023-03-14T15:32:47;99156.06;;;4.02;100.00
72423;BME280;60413;55.658;37.498;2023-03-14T15:35:20;99157.03;;;4.01;100.00
72423;BME280;60413;55.658;37.498;2023-03-14T15:37:52;99224.81;;;4.42;100.00
72423;BME280;60413;55.658;37.498;2023-03-14T15:40:27;99210.94;;;4.29;100.00
72423;BME280;60413;55.658;37.498;2023-03-14T15:43:15;99179.00;;;4.20;100.00
72423;BME280;60413;55.658;37.498;2023-03-14T15:45:42;99208.28;;;4.15;100.00
72423;BME280;60413;55.658;37.498;2023-03-14T15:48:17;99182.28;;;3.94;100.00
72423;BME280;60413;55.658;37.498;2023-03-14T15:50:53;99199.00;;;4.06;100.00
72423;BME280;60413;55.658;37.498;2023-03-14T15:53:24;99196.22;;;4.14;100.00
72423;BME280;60413;55.658;37.498;2023-03-14T15:56:20;99227.78;;;4.19;100.00
72423;BME280;60413;55.658;37.498;2023-03-14T15:59:12;99184.47;;;3.90;100.00
72423;BME280;60413;55.658;37.498;2023-03-14T16:01:39;99193.22;;;4.17;100.00
72423;BME280;60413;55.658;37.498;2023-03-14T16:04:14;99194.78;;;4.05;100.00
72423;BME280;60413;55.658;37.498;2023-03-14T16:06:44;99214.66;;;4.06;100.00
72423;BME280;60413;55.658;37.498;2023-03-14T16:09:16;99171.19;;;3.78;100.00
72423;BME280;60413;55.658;37.498;2023-03-14T16:11:53;99161.53;;;3.72;100.00
72423;BME280;60413;55.658;37.498;2023-03-14T16:14:35;99203.44;;;3.77;100.00
72423;BME280;60413;55.658;37.498;2023-03-14T16:17:16;99223.75;;;3.82;100.00
72423;BME280;60413;55.658;37.498;2023-03-14T16:19:46;99236.50;;;3.70;100.00
72423;BME280;60413;55.658;37.498;2023-03-14T16:22:30;99225.09;;;3.71;100.00
72423;BME280;60413;55.658;37.498;2023-03-14T16:25:04;99271.56;;;3.96;100.00
72423;BME280;60413;55.658;37.498;2023-03-14T16:27:31;99276.53;;;3.90;100.00
72423;BME280;60413;55.658;37.498;2023-03-14T16:30:11;99208.81;;;3.41;100.00
72423;BME280;60413;55.658;37.498;2023-03-14T16:33:06;99250.75;;;3.74;100.00
72423;BME280;60413;55.658;37.498;2023-03-14T16:35:56;99250.56;;;3.47;100.00
72423;BME280;60413;55.658;37.498;2023-03-14T16:38:25;99247.75;;;3.49;100.00
72423;BME280;60413;55.658;37.498;2023-03-14T16:41:09;99209.63;;;3.69;100.00
72423;BME280;60413;55.658;37.498;2023-03-14T16:43:43;99263.63;;;3.54;100.00
72423;BME280;60413;55.658;37.498;2023-03-14T16:46:14;99241.38;;;3.51;100.00
72423;BME280;60413;55.658;37.498;2023-03-14T16:49:05;99291.47;;;3.75;100.00
72423;BME280;60413;55.658;37.498;2023-03-14T16:52:54;99299.72;;;3.79;100.00
72423;BME280;60413;55.658;37.498;2023-03-14T16:59:20;99241.66;;;3.35;100.00
72423;BME280;60413;55.658;37.498;2023-03-14T17:02:25;99241.09;;;3.40;100.00
72423;BME280;60413;55.658;37.498;2023-03-14T17:04:58;99295.66;;;3.69;100.00
72423;BME280;60413;55.658;37.498;2023-03-14T17:07:52;99308.50;;;3.71;100.00
72423;BME280;60413;55.658;37.498;2023-03-14T17:13:36;99235.97;;;3.25;100.00
72423;BME280;60413;55.658;37.498;2023-03-14T17:16:10;99238.81;;;3.30;100.00
72423;BME280;60413;55.658;37.498;2023-03-14T17:22:28;99273.75;;;3.42;100.00
72423;BME280;60413;55.658;37.498;2023-03-14T17:28:35;99221.19;;;3.32;100.00
72423;BME280;60413;55.658;37.498;2023-03-14T17:31:29;99217.16;;;3.29;100.00
72423;BME280;60413;55.658;37.498;2023-03-14T17:34:22;99222.44;;;3.36;100.00
72423;BME280;60413;55.658;37.498;2023-03-14T17:45:06;99253.84;;;3.56;100.00
72423;BME280;60413;55.658;37.498;2023-03-14T17:48:17;99246.41;;;3.81;100.00
72423;BME280;60413;55.658;37.498;2023-03-14T17:52:07;99224.38;;;3.56;100.00
72423;BME280;60413;55.658;37.498;2023-03-14T18:03:41;99238.84;;;3.37;100.00
72423;BME280;60413;55.658;37.498;2023-03-14T18:26:24;99286.25;;;3.75;100.00
72423;BME280;60413;55.658;37.498;2023-03-14T18:29:32;99247.94;;;3.47;100.00
72423;BME280;60413;55.658;37.498;2023-03-14T18:39:16;99241.66;;;3.35;100.00
72423;BME280;60413;55.658;37.498;2023-03-14T18:43:31;99295.28;;;3.73;100.00
72423;BME280;60413;55.658;37.498;2023-03-14T18:46:58;99323.75;;;3.74;100.00
72423;BME280;60413;55.658;37.498;2023-03-14T18:54:19;99297.25;;;3.70;100.00
72423;BME280;60413;55.658;37.498;2023-03-14T18:57:18;99290.25;;;3.71;100.00
72423;BME280;60413;55.658;37.498;2023-03-14T19:05:25;99235.69;;;3.41;100.00
72423;BME280;60413;55.658;37.498;2023-03-14T19:09:21;99272.84;;;3.78;100.00
72423;BME280;60413;55.658;37.498;2023-03-14T19:19:43;99296.13;;;3.80;100.00
72423;BME280;60413;55.658;37.498;2023-03-14T19:22:58;99212.44;;;3.40;100.00
72423;BME280;60413;55.658;37.498;2023-03-14T19:27:15;99294.78;;;3.90;100.00
72423;BME280;60413;55.658;37.498;2023-03-14T19:35:26;99257.13;;;3.65;100.00
72423;BME280;60413;55.658;37.498;2023-03-14T19:41:54;99275.19;;;3.66;100.00
72423;BME280;60413;55.658;37.498;2023-03-14T19:45:59;99311.22;;;3.84;100.00
72423;BME280;60413;55.658;37.498;2023-03-14T19:49:31;99258.66;;;3.31;100.00
72423;BME280;60413;55.658;37.498;2023-03-14T19:57:54;99273.94;;;3.62;100.00
72423;BME280;60413;55.658;37.498;2023-03-14T20:05:30;99266.03;;;3.27;100.00
72423;BME280;60413;55.658;37.498;2023-03-14T20:08:53;99318.38;;;3.54;100.00
72423;BME280;60413;55.658;37.498;2023-03-14T20:11:44;99238.94;;;3.00;100.00
72423;BME280;60413;55.658;37.498;2023-03-14T20:29:30;99332.75;;;3.71;100.00
72423;BME280;60413;55.658;37.498;2023-03-14T21:35:04;99283.19;;;3.65;100.00
72423;BME280;60413;55.658;37.498;2023-03-14T21:38:50;99287.19;;;3.67;100.00
72423;BME280;60413;55.658;37.498;2023-03-14T21:42:29;99302.47;;;3.70;100.00
72423;BME280;60413;55.658;37.498;2023-03-14T21:45:32;99279.03;;;3.49;100.00